Time;durP1;ratioP1;P1;durP2;ratioP2;P2;SDS_P1;SDS_P2;PMS_P1;PMS_P2;Temp;Humidity;BMP_temperature;BMP_pressure;BME280_temperature;BME280_humidity;BME280_pressure;Samples;Min_cycle;Max_cycle;Signal;HPM_P1;HPM_P2
2023/07/29 00:01:31;;;;;;;6.20;3.17;;;19.00;99.90;;;;;;5092062;28;20048;-48
2023/07/29 00:03:57;;;;;;;;;;;19.00;99.90;;;;;;5093661;28;20054;-46
2023/07/29 00:06:23;;;;;;;5.65;2.60;;;19.00;99.90;;;;;;5092877;28;20014;-45
2023/07/29 00:08:49;;;;;;;5.80;2.63;;;19.00;99.90;;;;;;5093041;28;20052;-45
2023/07/29 00:11:14;;;;;;;5.65;2.63;;;19.10;99.90;;;;;;5093690;28;20059;-46
2023/07/29 00:13:40;;;;;;;4.65;2.25;;;19.10;99.90;;;;;;5095865;28;20394;-45
2023/07/29 00:16:06;;;;;;;5.60;2.85;;;19.10;99.90;;;;;;5095784;28;20087;-46
2023/07/29 00:18:32;;;;;;;5.25;2.65;;;19.10;99.90;;;;;;5095624;28;20047;-45
2023/07/29 00:20:58;;;;;;;8.30;2.30;;;19.20;99.90;;;;;;5097034;28;20546;-45
2023/07/29 00:23:24;;;;;;;5.22;2.42;;;19.20;99.90;;;;;;5096731;28;20079;-45
2023/07/29 00:25:49;;;;;;;5.78;2.85;;;19.20;99.90;;;;;;5096427;28;20052;-45
2023/07/29 00:28:15;;;;;;;4.95;2.35;;;19.20;99.90;;;;;;5094898;28;20044;-46
2023/07/29 00:30:41;;;;;;;6.35;2.72;;;19.20;99.90;;;;;;5096288;28;20051;-45
2023/07/29 00:33:07;;;;;;;7.07;2.85;;;19.20;99.90;;;;;;5096590;28;20380;-45
2023/07/29 00:35:33;;;;;;;6.07;3.00;;;19.20;99.90;;;;;;5096507;28;20106;-45
2023/07/29 00:37:59;;;;;;;7.03;2.92;;;19.20;99.90;;;;;;5096439;28;20075;-45
2023/07/29 00:40:26;;;;;;;6.93;3.55;;;19.20;99.90;;;;;;5096333;28;20044;-46
2023/07/29 00:42:52;;;;;;;6.93;3.00;;;19.20;99.90;;;;;;5096144;28;20483;-45
2023/07/29 00:45:18;;;;;;;6.85;3.67;;;19.20;99.90;;;;;;5095959;28;20063;-45
2023/07/29 00:47:44;;;;;;;6.68;3.40;;;19.20;99.90;;;;;;5096180;28;20044;-45
2023/07/29 00:50:12;;;;;;;6.95;3.33;;;19.20;99.90;;;;;;5096238;28;20117;-46
2023/07/29 00:52:38;;;;;;;6.75;3.40;;;19.20;99.90;;;;;;5096198;28;20052;-45
2023/07/29 00:55:05;;;;;;;7.25;3.65;;;19.20;99.90;;;;;;5096156;28;20096;-46
2023/07/29 00:57:32;;;;;;;5.78;3.08;;;19.20;99.90;;;;;;5096024;28;20044;-45
2023/07/29 00:59:58;;;;;;;6.30;3.60;;;19.20;99.90;;;;;;5096023;28;20043;-46
2023/07/29 01:02:24;;;;;;;6.85;3.50;;;19.20;99.90;;;;;;5096077;28;20055;-44
2023/07/29 01:04:57;;;;;;;7.53;4.25;;;19.10;99.90;;;;;;5095940;28;20048;-45
2023/07/29 01:07:42;;;;;;;8.65;3.80;;;19.20;99.90;;;;;;5095854;28;20040;-45
2023/07/29 01:10:21;;;;;;;6.57;3.13;;;19.20;99.90;;;;;;5095470;28;20105;-45
2023/07/29 01:13:04;;;;;;;16.65;4.53;;;19.10;99.90;;;;;;5096154;28;20063;-45
2023/07/29 01:15:30;;;;;;;7.28;3.67;;;19.20;99.90;;;;;;5095963;28;20406;-45
2023/07/29 01:18:04;;;;;;;6.28;3.40;;;19.10;99.90;;;;;;5094742;28;20135;-45
2023/07/29 01:20:33;;;;;;;6.63;3.15;;;19.10;99.90;;;;;;5095444;28;20044;-46
2023/07/29 01:22:59;;;;;;;6.22;3.45;;;19.10;99.90;;;;;;5094877;28;20395;-47
2023/07/29 01:25:25;;;;;;;9.07;4.38;;;19.10;99.90;;;;;;5094761;28;20051;-45
2023/07/29 01:27:52;;;;;;;7.43;3.60;;;19.10;99.90;;;;;;5095406;28;20543;-46
2023/07/29 01:30:19;;;;;;;7.22;3.80;;;19.10;99.90;;;;;;5095375;28;20403;-45
2023/07/29 01:32:52;;;;;;;6.68;3.53;;;19.10;99.90;;;;;;5095194;28;20036;-47
2023/07/29 01:35:28;;;;;;;6.82;3.53;;;19.10;99.90;;;;;;5095238;28;20108;-45
2023/07/29 01:37:59;;;;;;;7.45;3.83;;;19.10;99.90;;;;;;5094380;28;20394;-45
2023/07/29 01:40:27;;;;;;;5.80;2.85;;;19.10;99.90;;;;;;5095512;28;20052;-45
2023/07/29 01:42:53;;;;;;;7.55;3.38;;;19.10;99.90;;;;;;5095219;28;20090;-45
2023/07/29 01:45:22;;;;;;;6.25;3.08;;;19.00;99.90;;;;;;5094957;28;20075;-45
2023/07/29 01:47:48;;;;;;;7.28;3.40;;;19.00;99.90;;;;;;5094975;28;20086;-47
2023/07/29 01:50:13;;;;;;;6.25;3.28;;;19.00;99.90;;;;;;5093879;28;20106;-46
2023/07/29 01:52:39;;;;;;;8.15;3.75;;;19.00;99.90;;;;;;5094886;28;20039;-45
2023/07/29 01:55:05;;;;;;;7.18;3.63;;;19.00;99.90;;;;;;5077423;28;20067;-47
2023/07/29 01:57:31;;;;;;;6.68;3.42;;;19.00;99.90;;;;;;5094774;28;20127;-45
2023/07/29 01:59:56;;;;;;;6.00;3.13;;;18.90;99.90;;;;;;5094652;28;20040;-46
2023/07/29 02:02:22;;;;;;;6.68;3.20;;;18.90;99.90;;;;;;5093545;28;20101;-46
2023/07/29 02:04:51;;;;;;;6.57;3.30;;;18.90;99.90;;;;;;5094817;28;20048;-45
2023/07/29 02:07:18;;;;;;;6.68;3.42;;;18.90;99.90;;;;;;5094668;28;20040;-45
2023/07/29 02:09:43;;;;;;;7.55;3.45;;;18.90;99.90;;;;;;5094365;28;20066;-46
2023/07/29 02:12:09;;;;;;;7.30;3.40;;;18.80;99.90;;;;;;5094754;28;20494;-45
2023/07/29 02:14:35;;;;;;;6.65;3.40;;;18.80;99.90;;;;;;5094411;28;20514;-46
2023/07/29 02:17:00;;;;;;;7.30;3.45;;;18.80;99.90;;;;;;5094482;28;20043;-45
2023/07/29 02:19:26;;;;;;;7.40;3.85;;;18.80;99.90;;;;;;5093764;28;20040;-45
2023/07/29 02:21:52;;;;;;;7.65;3.75;;;18.80;99.90;;;;;;5093537;28;20127;-46
2023/07/29 02:24:17;;;;;;;6.22;3.22;;;18.80;99.90;;;;;;5094474;28;20055;-45
2023/07/29 02:26:43;;;;;;;6.10;3.20;;;18.70;99.90;;;;;;5094263;28;20047;-44
2023/07/29 02:29:08;;;;;;;6.82;3.33;;;18.70;99.90;;;;;;5094169;28;20047;-45
2023/07/29 02:31:36;;;;;;;7.07;3.38;;;18.70;99.90;;;;;;5093105;28;20100;-45
2023/07/29 02:34:02;;;;;;;7.10;3.17;;;18.70;99.90;;;;;;5093611;28;20106;-46
2023/07/29 02:36:27;;;;;;;6.18;3.40;;;18.70;99.90;;;;;;5093010;28;20044;-45
2023/07/29 02:38:53;;;;;;;6.70;3.25;;;18.70;99.90;;;;;;5094214;28;20087;-46
2023/07/29 02:41:19;;;;;;;5.20;2.80;;;18.60;99.90;;;;;;5094024;28;20047;-46
2023/07/29 02:43:48;;;;;;;7.57;3.03;;;18.60;99.90;;;;;;5092854;28;20479;-45
2023/07/29 02:46:14;;;;;;;6.90;3.33;;;18.60;99.90;;;;;;5094008;28;20576;-45
2023/07/29 02:48:39;;;;;;;6.65;3.28;;;18.50;99.90;;;;;;5094028;28;20127;-47
2023/07/29 02:51:05;;;;;;;7.15;3.45;;;18.50;99.90;;;;;;5094027;28;20475;-44
2023/07/29 02:53:31;;;;;;;6.15;3.13;;;18.50;99.90;;;;;;5094054;28;20040;-46
2023/07/29 02:55:56;;;;;;;6.50;3.47;;;18.50;99.90;;;;;;5092893;28;20390;-46
2023/07/29 02:58:22;;;;;;;6.25;3.00;;;18.40;99.90;;;;;;5093920;28;20040;-45
2023/07/29 03:00:48;;;;;;;7.63;3.88;;;18.40;99.90;;;;;;5093582;28;20058;-45
2023/07/29 03:03:14;;;;;;;7.43;3.80;;;18.40;99.90;;;;;;5093934;28;20083;-46
2023/07/29 03:05:40;;;;;;;5.82;3.08;;;18.40;99.90;;;;;;5093860;28;20046;-45
2023/07/29 03:08:05;;;;;;;6.32;3.40;;;18.40;99.90;;;;;;5092342;28;20040;-45
2023/07/29 03:10:31;;;;;;;6.53;3.72;;;18.40;99.90;;;;;;5093531;28;20100;-45
2023/07/29 03:12:57;;;;;;;7.25;3.65;;;18.30;99.90;;;;;;5093436;28;20055;-45
2023/07/29 03:15:26;;;;;;;7.00;3.35;;;18.30;99.90;;;;;;5093419;28;20048;-45
2023/07/29 03:17:52;;;;;;;5.82;3.05;;;18.30;99.90;;;;;;5093640;28;20047;-45
2023/07/29 03:20:18;;;;;;;;;;;18.30;99.90;;;;;;5094716;28;20048;-45
2023/07/29 03:22:45;;;;;;;7.22;3.22;;;18.30;99.90;;;;;;5092823;28;19920;-45
2023/07/29 03:25:11;;;;;;;5.88;2.97;;;18.30;99.90;;;;;;5093348;28;20082;-47
2023/07/29 03:27:36;;;;;;;7.40;3.08;;;18.30;99.90;;;;;;5092012;28;20102;-44
2023/07/29 03:30:06;;;;;;;7.25;3.00;;;18.30;99.90;;;;;;5093293;28;20047;-45
2023/07/29 03:32:31;;;;;;;6.25;2.97;;;18.20;99.90;;;;;;5093558;28;20105;-45
2023/07/29 03:34:58;;;;;;;7.28;3.47;;;18.20;99.90;;;;;;5092247;28;20126;-46
2023/07/29 03:37:24;;;;;;;6.03;2.63;;;18.20;99.90;;;;;;5093446;28;20055;-45
2023/07/29 03:39:51;;;;;;;6.45;3.47;;;18.20;99.90;;;;;;5093241;28;20044;-45
2023/07/29 03:42:17;;;;;;;5.95;3.00;;;18.20;99.90;;;;;;5092239;28;20052;-46
2023/07/29 03:44:43;;;;;;;7.53;3.17;;;18.20;99.90;;;;;;5093402;28;20040;-45
2023/07/29 03:47:09;;;;;;;4.90;2.38;;;18.20;99.90;;;;;;5097110;28;20429;-46
2023/07/29 03:49:34;;;;;;;5.90;3.00;;;18.20;99.90;;;;;;5097447;28;20063;-45
2023/07/29 03:52:00;;;;;;;5.90;2.67;;;18.20;99.90;;;;;;5097327;28;20402;-46
2023/07/29 03:54:26;;;;;;;6.13;2.50;;;18.10;99.90;;;;;;5095997;28;20040;-46
2023/07/29 03:56:51;;;;;;;8.27;2.78;;;18.10;99.90;;;;;;5097156;28;20089;-45
2023/07/29 03:59:17;;;;;;;6.53;2.72;;;18.10;99.90;;;;;;5079366;28;20048;-45
2023/07/29 04:01:43;;;;;;;7.68;2.95;;;18.10;99.90;;;;;;5097173;28;20048;-45
2023/07/29 04:04:08;;;;;;;6.80;2.58;;;18.10;99.90;;;;;;5097307;28;20044;-46
2023/07/29 04:06:34;;;;;;;5.32;2.63;;;18.10;99.90;;;;;;5097094;28;20044;-46
2023/07/29 04:09:00;;;;;;;6.95;2.60;;;18.00;99.90;;;;;;5097095;28;20071;-45
2023/07/29 04:11:25;;;;;;;6.28;2.63;;;18.00;99.90;;;;;;5097102;28;20484;-45
2023/07/29 04:13:51;;;;;;;6.47;2.58;;;18.00;99.90;;;;;;5096980;28;20140;-45
2023/07/29 04:16:17;;;;;;;5.72;2.47;;;18.00;99.90;;;;;;5096871;28;20036;-45
2023/07/29 04:18:43;;;;;;;6.65;2.25;;;18.00;99.90;;;;;;5096837;28;20052;-45
2023/07/29 04:21:09;;;;;;;5.25;2.42;;;18.00;99.90;;;;;;5096804;28;20075;-45
2023/07/29 04:23:35;;;;;;;6.60;2.30;;;18.10;99.90;;;;;;5095684;28;20052;-44
2023/07/29 04:26:00;;;;;;;5.68;2.45;;;18.00;99.90;;;;;;5096525;28;20415;-45
2023/07/29 04:28:26;;;;;;;4.78;2.13;;;18.00;99.90;;;;;;5096366;28;20040;-45
2023/07/29 04:30:52;;;;;;;6.63;2.47;;;18.00;99.90;;;;;;5096645;28;20046;-45
2023/07/29 04:33:17;;;;;;;5.25;2.30;;;18.00;99.90;;;;;;5096607;28;20048;-45
2023/07/29 04:35:44;;;;;;;4.63;2.00;;;18.10;99.90;;;;;;5095529;28;20090;-46
2023/07/29 04:38:09;;;;;;;6.55;2.55;;;18.00;99.90;;;;;;5096423;28;20043;-45
2023/07/29 04:40:35;;;;;;;3.95;1.50;;;18.00;99.90;;;;;;5095606;28;20048;-46
2023/07/29 04:43:01;;;;;;;3.58;1.73;;;18.00;99.90;;;;;;5096230;28;20047;-45
2023/07/29 04:45:30;;;;;;;4.40;1.73;;;18.10;99.90;;;;;;5096435;28;20123;-45
2023/07/29 04:47:56;;;;;;;4.90;2.10;;;18.10;99.90;;;;;;5095028;28;20471;-47
2023/07/29 04:50:22;;;;;;;;;;;18.00;99.90;;;;;;5096423;28;20071;-46
2023/07/29 04:52:48;;;;;;;4.43;1.88;;;18.00;99.90;;;;;;5094951;28;20315;-45
2023/07/29 04:55:13;;;;;;;5.40;1.60;;;18.00;99.90;;;;;;5096032;28;20122;-45
2023/07/29 04:57:39;;;;;;;5.13;1.73;;;18.00;99.90;;;;;;5095538;28;20040;-44
2023/07/29 05:00:05;;;;;;;5.15;1.90;;;18.10;99.90;;;;;;5095053;28;20112;-46
2023/07/29 05:02:31;;;;;;;5.75;1.88;;;18.10;99.90;;;;;;5096099;28;20066;-45
2023/07/29 05:04:57;;;;;;;3.78;1.45;;;18.10;99.90;;;;;;5096011;28;20040;-46
2023/07/29 05:07:22;;;;;;;4.63;1.60;;;18.10;99.90;;;;;;5095915;28;20040;-45
2023/07/29 05:09:48;;;;;;;4.00;1.27;;;18.10;99.90;;;;;;5094214;28;20048;-45
2023/07/29 05:12:14;;;;;;;3.58;1.38;;;18.10;99.90;;;;;;5096105;28;20117;-44
2023/07/29 05:14:39;;;;;;;3.20;1.33;;;18.20;99.90;;;;;;5095874;28;20127;-45
2023/07/29 05:17:05;;;;;;;2.47;1.25;;;18.20;99.90;;;;;;5096100;28;20048;-45
2023/07/29 05:19:31;;;;;;;3.33;1.40;;;18.20;99.90;;;;;;5095776;28;20040;-45
2023/07/29 05:21:57;;;;;;;4.55;1.25;;;18.20;99.90;;;;;;5095499;28;20055;-45
2023/07/29 05:24:23;;;;;;;3.20;1.15;;;18.20;99.90;;;;;;5095460;28;20055;-49
2023/07/29 05:26:49;;;;;;;4.32;1.40;;;18.20;99.90;;;;;;5095909;28;20105;-46
2023/07/29 05:29:15;;;;;;;2.72;1.00;;;18.20;99.90;;;;;;5095883;28;20040;-46
2023/07/29 05:31:41;;;;;;;3.05;1.02;;;18.20;99.90;;;;;;5095398;28;20040;-45
2023/07/29 05:34:06;;;;;;;2.72;1.10;;;18.20;99.90;;;;;;5095300;28;20047;-45
2023/07/29 05:36:32;;;;;;;4.70;1.23;;;18.20;99.90;;;;;;5095338;28;20051;-45
2023/07/29 05:38:58;;;;;;;4.10;1.15;;;18.20;99.90;;;;;;5095305;28;20047;-46
2023/07/29 05:41:25;;;;;;;3.35;1.10;;;18.20;99.90;;;;;;5095145;28;20044;-45
2023/07/29 05:43:51;;;;;;;2.78;1.10;;;18.30;99.90;;;;;;5095142;28;20055;-45
2023/07/29 05:46:17;;;;;;;5.07;1.50;;;18.30;99.90;;;;;;5095245;28;20044;-45
2023/07/29 05:48:43;;;;;;;3.10;1.15;;;18.30;99.90;;;;;;5095084;28;20044;-46
2023/07/29 05:51:08;;;;;;;2.58;0.90;;;18.30;99.90;;;;;;5095036;28;20467;-45
2023/07/29 05:53:34;;;;;;;3.00;0.98;;;18.30;99.90;;;;;;5093867;28;20051;-44
2023/07/29 05:55:59;;;;;;;4.07;1.20;;;18.30;99.90;;;;;;5094679;28;20688;-45
2023/07/29 05:58:25;;;;;;;3.97;1.10;;;18.30;99.90;;;;;;5095044;28;20552;-45
2023/07/29 06:00:51;;;;;;;3.00;1.00;;;18.30;99.90;;;;;;5094745;28;20040;-46
2023/07/29 06:03:17;;;;;;;3.35;1.23;;;18.30;99.90;;;;;;5094991;28;20039;-46
2023/07/29 06:05:42;;;;;;;5.90;1.23;;;18.30;99.90;;;;;;5094992;28;20044;-45
2023/07/29 06:08:08;;;;;;;3.75;1.13;;;18.30;99.90;;;;;;5094471;28;20048;-45
2023/07/29 06:10:34;;;;;;;3.22;1.20;;;18.30;99.90;;;;;;5094425;28;20056;-45
2023/07/29 06:13:00;;;;;;;3.85;1.10;;;18.30;99.90;;;;;;5094663;28;20139;-45
2023/07/29 06:15:25;;;;;;;4.72;1.02;;;18.30;99.90;;;;;;5094588;28;20093;-45
2023/07/29 06:17:51;;;;;;;3.67;1.33;;;18.30;99.90;;;;;;5094480;28;20098;-45
2023/07/29 06:20:17;;;;;;;2.05;0.75;;;18.30;99.90;;;;;;5094510;28;20040;-45
2023/07/29 06:22:45;;;;;;;3.88;1.27;;;18.30;99.90;;;;;;5094359;28;20113;-45
2023/07/29 06:25:11;;;;;;;4.15;1.10;;;18.30;99.90;;;;;;5127366;27;20052;-45
2023/07/29 06:27:37;;;;;;;3.30;0.90;;;18.30;99.90;;;;;;5094634;28;20040;-46
2023/07/29 06:30:03;;;;;;;3.13;1.15;;;18.30;99.90;;;;;;5094354;28;20128;-45
2023/07/29 06:32:28;;;;;;;4.40;1.40;;;18.30;99.90;;;;;;5094426;28;20048;-46
2023/07/29 06:34:54;;;;;;;4.35;1.50;;;18.30;99.90;;;;;;5094376;28;20136;-46
2023/07/29 06:37:20;;;;;;;3.28;1.10;;;18.30;99.90;;;;;;5094017;28;20478;-47
2023/07/29 06:39:46;;;;;;;3.83;1.35;;;18.40;99.90;;;;;;5093951;28;20076;-46
2023/07/29 06:42:11;;;;;;;3.50;1.17;;;18.50;99.90;;;;;;5093189;28;20144;-45
2023/07/29 06:44:37;;;;;;;3.28;1.35;;;18.50;99.90;;;;;;5094114;28;20044;-45
2023/07/29 06:47:03;;;;;;;3.60;1.10;;;18.60;99.90;;;;;;5094084;28;20044;-46
2023/07/29 06:49:29;;;;;;;3.75;1.30;;;18.60;99.90;;;;;;5094053;28;20106;-46
2023/07/29 06:51:54;;;;;;;3.72;1.20;;;18.70;99.90;;;;;;5093946;28;20048;-47
2023/07/29 06:54:25;;;;;;;3.35;1.25;;;18.70;99.90;;;;;;5093887;28;20039;-45
2023/07/29 06:56:52;;;;;;;3.78;1.25;;;18.70;99.90;;;;;;5093173;28;20098;-45
2023/07/29 06:59:17;;;;;;;4.35;1.20;;;18.70;99.90;;;;;;5093982;28;20475;-45
2023/07/29 07:01:43;;;;;;;5.35;1.30;;;18.70;99.90;;;;;;5093908;28;20054;-45
2023/07/29 07:04:09;;;;;;;2.67;1.10;;;18.70;99.90;;;;;;5093765;28;20168;-46
2023/07/29 07:06:35;;;;;;;4.18;1.40;;;18.80;99.90;;;;;;5093727;28;20134;-46
2023/07/29 07:09:00;;;;;;;5.43;1.40;;;18.80;99.90;;;;;;5094154;28;20056;-44
2023/07/29 07:11:26;;;;;;;3.67;1.30;;;18.80;99.90;;;;;;5093598;28;20458;-44
2023/07/29 07:13:52;;;;;;;5.40;1.45;;;18.90;99.90;;;;;;5093873;28;20071;-45
2023/07/29 07:16:17;;;;;;;4.78;1.30;;;19.00;99.90;;;;;;5094006;28;20071;-45
2023/07/29 07:18:43;;;;;;;4.38;1.35;;;19.00;99.90;;;;;;5093465;28;20039;-46
2023/07/29 07:21:09;;;;;;;5.63;1.55;;;19.10;99.90;;;;;;5092889;28;20096;-44
2023/07/29 07:23:35;;;;;;;4.22;1.30;;;19.30;99.90;;;;;;5092187;28;20040;-45
2023/07/29 07:26:00;;;;;;;5.32;1.65;;;19.30;99.90;;;;;;5075333;28;20040;-45
2023/07/29 07:28:26;;;;;;;3.85;1.75;;;19.30;99.90;;;;;;5093508;28;20055;-45
2023/07/29 07:30:52;;;;;;;6.25;1.80;;;19.20;99.90;;;;;;5093506;28;20090;-44
2023/07/29 07:33:17;;;;;;;4.45;1.48;;;19.20;99.90;;;;;;5093565;28;20044;-45
2023/07/29 07:35:43;;;;;;;4.03;1.52;;;19.10;99.90;;;;;;5093523;28;20051;-45
2023/07/29 07:38:09;;;;;;;5.32;1.92;;;19.20;99.90;;;;;;5093171;28;20394;-44
2023/07/29 07:40:35;;;;;;;;;;;19.10;99.90;;;;;;5093912;28;20044;-47
2023/07/29 07:43:01;;;;;;;4.88;1.75;;;19.10;99.90;;;;;;5093390;28;19920;-45
2023/07/29 07:45:27;;;;;;;4.55;1.60;;;19.10;99.90;;;;;;5092404;28;20499;-45
2023/07/29 07:47:54;;;;;;;4.20;1.52;;;19.10;99.90;;;;;;5093404;28;20070;-45
2023/07/29 07:50:20;;;;;;;6.75;1.52;;;19.20;99.90;;;;;;5093160;28;20056;-46
2023/07/29 07:52:46;;;;;;;5.75;1.80;;;19.20;99.90;;;;;;5093325;28;20079;-45
2023/07/29 07:55:12;;;;;;;4.65;1.90;;;19.20;99.90;;;;;;5093340;28;20192;-44
2023/07/29 07:57:37;;;;;;;4.28;1.63;;;19.20;99.90;;;;;;5093347;28;20047;-46
2023/07/29 08:00:04;;;;;;;4.65;1.70;;;19.30;99.90;;;;;;5093139;28;20071;-44
2023/07/29 08:02:30;;;;;;;5.30;1.48;;;19.30;99.90;;;;;;5093317;28;20048;-45
2023/07/29 08:04:56;;;;;;;4.20;1.55;;;19.30;99.90;;;;;;5093118;28;20460;-45
2023/07/29 08:07:21;;;;;;;3.58;1.33;;;19.30;99.90;;;;;;5091803;28;20597;-45
2023/07/29 08:09:47;;;;;;;4.78;1.70;;;19.30;99.90;;;;;;5092095;28;20048;-46
2023/07/29 08:12:13;;;;;;;4.53;1.73;;;19.30;99.90;;;;;;5092951;28;20526;-45
2023/07/29 08:14:38;;;;;;;4.50;1.80;;;19.40;99.90;;;;;;5092007;28;20506;-45
2023/07/29 08:17:04;;;;;;;3.42;1.40;;;19.40;99.90;;;;;;5093057;28;20032;-45
2023/07/29 08:19:30;;;;;;;3.88;1.55;;;19.50;99.90;;;;;;5093163;28;20051;-45
2023/07/29 08:21:56;;;;;;;4.32;2.05;;;19.60;99.90;;;;;;5092925;28;20395;-46
2023/07/29 08:24:21;;;;;;;3.97;1.73;;;19.70;99.90;;;;;;5093141;28;20051;-45
2023/07/29 08:26:47;;;;;;;3.20;1.50;;;19.80;99.90;;;;;;5093185;28;20398;-45
2023/07/29 08:29:13;;;;;;;4.47;1.60;;;19.80;99.90;;;;;;5093154;28;20131;-45
2023/07/29 08:31:39;;;;;;;5.05;1.38;;;19.80;99.90;;;;;;5093140;28;20490;-45
2023/07/29 08:34:04;;;;;;;4.35;1.50;;;19.90;99.90;;;;;;5094751;28;20130;-48
2023/07/29 08:36:30;;;;;;;3.50;1.50;;;20.00;99.90;;;;;;5096459;28;20048;-45
2023/07/29 08:38:56;;;;;;;2.85;1.50;;;20.00;99.90;;;;;;5096476;28;20044;-47
2023/07/29 08:41:58;;;;;;;4.93;1.60;;;20.10;99.90;;;;;;5095602;28;20050;-45
2023/07/29 08:44:29;;;;;;;2.67;1.30;;;20.10;99.90;;;;;;5085598;28;20407;-45
2023/07/29 08:46:55;;;;;;;5.63;1.40;;;20.10;99.90;;;;;;5096345;28;20048;-45
2023/07/29 08:49:23;;;;;;;5.13;1.17;;;20.20;99.90;;;;;;5094967;28;20453;-47
2023/07/29 08:51:49;;;;;;;4.45;1.05;;;20.20;99.90;;;;;;5096500;28;20079;-47
2023/07/29 08:54:15;;;;;;;4.10;1.25;;;20.20;99.90;;;;;;5096203;28;20449;-47
2023/07/29 08:56:42;;;;;;;4.97;1.35;;;20.10;99.90;;;;;;5096220;28;20039;-46
2023/07/29 08:59:12;;;;;;;3.05;1.20;;;20.10;99.90;;;;;;5095030;28;20108;-47
2023/07/29 09:01:38;;;;;;;3.85;0.95;;;20.10;99.90;;;;;;5095971;28;20044;-47
2023/07/29 09:04:04;;;;;;;4.30;1.33;;;20.00;99.90;;;;;;5096087;28;20044;-46
2023/07/29 09:06:32;;;;;;;3.55;0.85;;;20.00;99.90;;;;;;5095944;28;20040;-45
2023/07/29 09:08:58;;;;;;;3.05;1.20;;;20.10;99.90;;;;;;5095927;28;20048;-45
2023/07/29 09:11:25;;;;;;;4.90;1.17;;;20.10;99.90;;;;;;5096145;28;20060;-46
2023/07/29 09:13:50;;;;;;;;;;;20.20;99.90;;;;;;5096321;28;20123;-47
2023/07/29 09:16:16;;;;;;;1.98;0.60;;;20.30;99.90;;;;;;5095685;28;20421;-46
2023/07/29 09:18:42;;;;;;;3.40;1.00;;;20.40;99.90;;;;;;5095878;28;20445;-47
2023/07/29 09:21:08;;;;;;;2.33;0.98;;;20.40;99.90;;;;;;5095754;28;20040;-47
2023/07/29 09:23:43;;;;;;;;;;;20.50;99.90;;;;;;5096154;28;20076;-48
2023/07/29 09:26:10;;;;;;;3.00;0.90;;;20.50;99.90;;;;;;5094506;28;19982;-45
2023/07/29 09:28:38;;;;;;;3.72;1.35;;;20.50;99.90;;;;;;5095219;28;20059;-47
2023/07/29 09:31:04;;;;;;;1.80;0.80;;;20.60;99.90;;;;;;5095774;28;20117;-46
2023/07/29 09:33:36;;;;;;;2.78;0.88;;;20.60;99.90;;;;;;5095493;28;20044;-49
2023/07/29 09:36:11;;;;;;;2.42;0.90;;;20.70;99.90;;;;;;5095752;28;20089;-46
2023/07/29 09:38:38;;;;;;;1.90;0.80;;;20.60;99.90;;;;;;5094679;28;20044;-45
2023/07/29 09:41:03;;;;;;;1.70;0.68;;;20.60;99.90;;;;;;5095180;28;20047;-47
2023/07/29 09:43:31;;;;;;;3.28;0.70;;;20.60;99.90;;;;;;5095302;28;20054;-46
2023/07/29 09:46:04;;;;;;;3.42;0.85;;;20.60;99.90;;;;;;5095047;28;20487;-46
2023/07/29 09:48:38;;;;;;;3.83;1.00;;;20.60;99.90;;;;;;5095220;28;20040;-45
2023/07/29 09:51:14;;;;;;;2.30;0.68;;;20.70;99.90;;;;;;5095152;28;20048;-45
2023/07/29 09:53:44;;;;;;;1.20;0.50;;;20.70;99.90;;;;;;5094962;28;20131;-46
2023/07/29 09:56:10;;;;;;;2.17;0.50;;;20.80;99.90;;;;;;5095141;28;20131;-47
2023/07/29 09:58:37;;;;;;;1.35;0.60;;;20.80;99.90;;;;;;5095236;28;20036;-46
2023/07/29 10:01:07;;;;;;;1.50;0.52;;;20.90;99.90;;;;;;5094948;28;20048;-47
2023/07/29 10:03:34;;;;;;;1.88;0.55;;;20.90;99.90;;;;;;5093893;28;20117;-45
2023/07/29 10:06:04;;;;;;;2.33;0.65;;;21.00;99.90;;;;;;5093565;28;20055;-46
2023/07/29 10:08:39;;;;;;;1.13;0.50;;;21.10;99.90;;;;;;5094493;28;20044;-48
2023/07/29 10:11:06;;;;;;;2.03;0.68;;;21.10;99.90;;;;;;5095039;28;20448;-49
2023/07/29 10:13:33;;;;;;;2.55;0.70;;;21.10;99.90;;;;;;5094624;28;20052;-48
2023/07/29 10:16:02;;;;;;;3.63;0.75;;;21.20;99.90;;;;;;5094615;28;20059;-47
2023/07/29 10:18:29;;;;;;;3.10;0.80;;;21.20;99.90;;;;;;5093318;28;20412;-47
2023/07/29 10:20:57;;;;;;;3.03;0.70;;;21.30;99.90;;;;;;5094607;28;20506;-48
2023/07/29 10:23:25;;;;;;;2.03;0.60;;;21.30;99.90;;;;;;5094807;28;20136;-56
2023/07/29 10:26:03;;;;;;;2.10;0.60;;;21.50;99.90;;;;;;5094322;28;20483;-50
2023/07/29 10:28:30;;;;;;;2.55;0.73;;;21.60;99.90;;;;;;5093169;28;20040;-52
2023/07/29 10:30:57;;;;;;;3.05;0.52;;;21.80;99.90;;;;;;5094107;28;20073;-47
2023/07/29 10:33:23;;;;;;;1.42;0.60;;;21.80;99.90;;;;;;5092963;28;20048;-50
2023/07/29 10:35:49;;;;;;;0.77;0.40;;;21.80;99.90;;;;;;5093268;28;20620;-49
2023/07/29 10:38:16;;;;;;;2.08;0.70;;;21.80;99.90;;;;;;5093138;28;20044;-47
2023/07/29 10:40:51;;;;;;;3.50;0.70;;;21.80;99.90;;;;;;5094164;28;20051;-48
2023/07/29 10:43:42;;;;;;;2.25;0.70;;;21.90;99.90;;;;;;5094192;28;20048;-48
2023/07/29 10:46:23;;;;;;;2.10;0.52;;;21.90;99.90;;;;;;5094283;28;20083;-46
2023/07/29 10:48:56;;;;;;;3.28;0.85;;;22.10;99.90;;;;;;5093222;28;20409;-49
2023/07/29 10:51:27;;;;;;;1.42;0.50;;;22.10;99.90;;;;;;5093004;28;20048;-56
2023/07/29 10:53:57;;;;;;;1.63;0.52;;;22.20;99.90;;;;;;5093920;28;20048;-48
2023/07/29 10:56:36;;;;;;;2.53;0.50;;;22.30;99.90;;;;;;5093187;28;20094;-46
2023/07/29 10:59:11;;;;;;;2.15;0.60;;;22.40;99.90;;;;;;5092962;28;20047;-50
2023/07/29 11:01:40;;;;;;;1.73;0.43;;;22.40;99.90;;;;;;5093880;28;20079;-47
2023/07/29 11:04:23;;;;;;;1.33;0.45;;;22.40;99.90;;;;;;5093857;28;20043;-53
2023/07/29 11:07:04;;;;;;;3.33;0.93;;;22.30;99.90;;;;;;5093484;28;20066;-47
2023/07/29 11:09:48;;;;;;;0.88;0.40;;;22.30;99.90;;;;;;5093800;28;20474;-53
2023/07/29 11:12:38;;;;;;;2.45;0.60;;;22.10;99.90;;;;;;5093702;28;20094;-47
2023/07/29 11:15:10;;;;;;;2.25;0.70;;;22.10;99.90;;;;;;5093546;28;20047;-50
2023/07/29 11:17:39;;;;;;;2.33;0.63;;;22.00;99.90;;;;;;5093586;28;20040;-48
2023/07/29 11:20:07;;;;;;;1.95;0.65;;;21.90;99.90;;;;;;5092478;28;20044;-46
2023/07/29 11:22:33;;;;;;;2.67;0.80;;;21.90;99.90;;;;;;5093705;28;20076;-49
2023/07/29 11:24:59;;;;;;;2.00;0.43;;;21.80;99.90;;;;;;5092295;28;20054;-48
2023/07/29 11:27:25;;;;;;;3.70;0.70;;;21.70;99.90;;;;;;5093327;28;20040;-46
2023/07/29 11:29:56;;;;;;;1.95;0.80;;;21.70;99.90;;;;;;5093184;28;20048;-47
2023/07/29 11:32:21;;;;;;;2.65;0.70;;;21.50;99.90;;;;;;5093521;28;20048;-46
2023/07/29 11:34:47;;;;;;;2.35;0.70;;;21.40;99.90;;;;;;5092698;28;20143;-46
2023/07/29 11:37:13;;;;;;;1.38;0.70;;;21.20;99.90;;;;;;5092230;28;20502;-46
2023/07/29 11:39:42;;;;;;;0.95;0.45;;;21.10;99.90;;;;;;5092240;28;20575;-47
2023/07/29 11:42:11;;;;;;;1.85;0.40;;;21.00;99.90;;;;;;5093220;28;20044;-47
2023/07/29 11:44:37;;;;;;;1.85;0.50;;;21.00;99.90;;;;;;5093515;28;20055;-46
2023/07/29 11:47:10;;;;;;;1.40;0.60;;;21.00;99.90;;;;;;5093536;28;20391;-46
2023/07/29 11:49:36;;;;;;;1.30;0.60;;;21.20;99.90;;;;;;5093752;28;20063;-47
2023/07/29 11:52:09;;;;;;;2.35;0.65;;;21.30;99.90;;;;;;5093519;28;20044;-46
2023/07/29 11:54:37;;;;;;;2.35;0.57;;;21.40;99.90;;;;;;5092459;28;20052;-48
2023/07/29 11:57:08;;;;;;;2.42;0.60;;;21.60;99.90;;;;;;5092407;28;20483;-48
2023/07/29 11:59:35;;;;;;;2.72;0.65;;;21.80;99.90;;;;;;5093396;28;20399;-48
2023/07/29 12:02:05;;;;;;;3.03;0.90;;;22.00;99.90;;;;;;5093288;28;20098;-54
2023/07/29 12:04:31;;;;;;;2.15;0.82;;;22.30;99.90;;;;;;5093124;28;20055;-53
2023/07/29 12:06:58;;;;;;;1.35;0.60;;;22.30;99.90;;;;;;5093356;28;20093;-46
2023/07/29 12:09:23;;;;;;;2.53;0.63;;;22.30;99.90;;;;;;5096077;28;20483;-47
2023/07/29 12:11:49;;;;;;;1.45;0.70;;;22.20;99.90;;;;;;5097345;28;20056;-48
2023/07/29 12:14:17;;;;;;;2.65;0.85;;;22.10;99.90;;;;;;5096988;28;20048;-48
2023/07/29 12:16:44;;;;;;;3.85;0.80;;;21.90;99.90;;;;;;5097057;28;20052;-52
2023/07/29 12:19:13;;;;;;;4.07;0.70;;;21.80;99.90;;;;;;5096789;28;20059;-47
2023/07/29 12:21:43;;;;;;;2.03;0.82;;;21.90;99.90;;;;;;5096872;28;20556;-48
2023/07/29 12:24:09;;;;;;;3.28;0.80;;;21.90;99.90;;;;;;5096659;28;20499;-45
2023/07/29 12:26:36;;;;;;;1.98;0.95;;;22.00;99.90;;;;;;5096905;28;20044;-47
2023/07/29 12:29:16;;;;;;;3.53;0.80;;;22.10;99.90;;;;;;5096665;28;20070;-48
2023/07/29 12:31:42;;;;;;;2.00;0.90;;;22.00;99.90;;;;;;5096451;28;20106;-45
2023/07/29 12:34:09;;;;;;;2.30;0.80;;;22.00;99.90;;;;;;5096376;28;20090;-49
2023/07/29 12:36:49;;;;;;;2.10;0.60;;;22.00;99.90;;;;;;5096403;28;20048;-48
2023/07/29 12:39:19;;;;;;;2.33;0.77;;;22.10;99.90;;;;;;5096536;28;20044;-49
2023/07/29 12:41:45;;;;;;;1.63;0.73;;;22.10;99.90;;;;;;5096574;28;20059;-48
2023/07/29 12:44:11;;;;;;;1.77;0.85;;;22.10;99.90;;;;;;5096406;28;20036;-47
2023/07/29 12:46:37;;;;;;;1.73;0.70;;;22.20;99.90;;;;;;5096129;28;20051;-49
2023/07/29 12:49:02;;;;;;;1.73;0.73;;;22.30;99.90;;;;;;5096297;28;20040;-52